createdAt,value
2019-03-05T00:01:20.285Z,4.30
2019-03-05T00:03:49.207Z,4.30
2019-03-05T00:06:19.436Z,4.30
2019-03-05T00:08:48.365Z,4.40
2019-03-05T00:11:17.284Z,4.40
2019-03-05T00:13:46.117Z,4.40
2019-03-05T00:16:15.048Z,4.40
2019-03-05T00:18:43.926Z,4.40
2019-03-05T00:21:12.845Z,4.30
2019-03-05T00:23:56.902Z,4.30
2019-03-05T00:26:31.895Z,4.40
2019-03-05T00:29:47.853Z,4.40
2019-03-05T00:32:16.794Z,4.40
2019-03-05T00:35:28.520Z,4.40
2019-03-05T00:38:31.410Z,4.30
2019-03-05T00:41:16.309Z,4.30
2019-03-05T00:44:32.421Z,4.20
2019-03-05T00:47:45.321Z,4.10
2019-03-05T00:50:39.145Z,4.10
2019-03-05T00:53:20.996Z,4.10
2019-03-05T00:56:36.955Z,4.10
2019-03-05T00:59:23.097Z,4.00
2019-03-05T01:02:01.669Z,4.00
2019-03-05T01:05:13.503Z,4.10
2019-03-05T01:07:42.388Z,4.10
2019-03-05T01:10:12.662Z,4.10
2019-03-05T01:12:42.758Z,4.10
2019-03-05T01:15:12.046Z,4.20
2019-03-05T01:17:40.892Z,4.10
2019-03-05T01:20:10.371Z,4.10
2019-03-05T01:22:39.394Z,4.00
2019-03-05T01:25:21.840Z,4.00
2019-03-05T01:27:50.694Z,4.00
2019-03-05T01:30:48.254Z,4.00
2019-03-05T01:33:17.322Z,4.00
2019-03-05T01:35:56.124Z,3.90
2019-03-05T01:38:25.096Z,3.90
2019-03-05T01:41:01.264Z,3.90
2019-03-05T01:43:30.256Z,3.80
2019-03-05T01:45:59.314Z,3.80
2019-03-05T01:48:28.245Z,3.80
2019-03-05T01:50:57.141Z,3.80
2019-03-05T01:53:26.067Z,3.80
2019-03-05T01:55:55.083Z,3.70
2019-03-05T01:58:23.925Z,3.70
2019-03-05T02:00:52.976Z,3.70
2019-03-05T02:03:21.894Z,3.60
2019-03-05T02:05:50.871Z,3.60
2019-03-05T02:08:19.867Z,3.60
2019-03-05T02:10:48.844Z,3.50
2019-03-05T02:13:17.933Z,3.50
2019-03-05T02:15:46.759Z,3.50
2019-03-05T02:18:20.158Z,3.40
2019-03-05T02:20:49.233Z,3.40
2019-03-05T02:23:51.542Z,3.40
2019-03-05T02:26:52.593Z,3.40
2019-03-05T02:29:54.008Z,3.30
2019-03-05T02:33:13.431Z,3.40
2019-03-05T02:36:05.084Z,3.60
2019-03-05T02:39:16.250Z,3.60
2019-03-05T02:41:57.529Z,3.60
2019-03-05T02:44:35.945Z,3.70
2019-03-05T02:47:33.361Z,3.90
2019-03-05T02:50:42.014Z,4.00
2019-03-05T02:53:34.976Z,4.10
2019-03-05T02:56:40.809Z,4.20
2019-03-05T02:59:08.312Z,4.30
2019-03-05T03:01:47.064Z,4.30
2019-03-05T03:04:18.312Z,4.30
2019-03-05T03:06:47.221Z,4.40
2019-03-05T03:10:07.264Z,4.40
2019-03-05T03:12:36.194Z,4.40
2019-03-05T03:15:07.635Z,4.40
2019-03-05T03:17:36.543Z,4.30
2019-03-05T03:20:06.126Z,4.30
2019-03-05T03:22:34.951Z,4.30
2019-03-05T03:25:04.047Z,4.20
2019-03-05T03:27:32.924Z,4.20
2019-03-05T03:30:01.786Z,4.20
2019-03-05T03:32:30.652Z,4.10
2019-03-05T03:34:59.538Z,4.00
2019-03-05T03:37:28.469Z,3.90
2019-03-05T03:39:57.298Z,3.80
2019-03-05T03:42:26.475Z,3.80
2019-03-05T03:44:55.400Z,3.70
2019-03-05T03:47:24.367Z,3.60
2019-03-05T03:49:53.269Z,3.60
2019-03-05T03:52:22.204Z,3.60
2019-03-05T03:54:51.108Z,3.70
2019-03-05T03:57:20.101Z,3.80
2019-03-05T03:59:49.094Z,3.90
2019-03-05T04:02:18.077Z,4.10
2019-03-05T04:04:47.073Z,4.20
2019-03-05T04:07:15.968Z,4.30
2019-03-05T04:09:44.802Z,4.40
2019-03-05T04:12:13.707Z,4.40
2019-03-05T04:14:42.607Z,4.60
2019-03-05T04:17:11.436Z,4.60
2019-03-05T04:19:40.341Z,4.60
2019-03-05T04:22:09.193Z,4.60
2019-03-05T04:24:38.048Z,4.70
2019-03-05T04:27:06.884Z,4.50
2019-03-05T04:29:35.750Z,4.50
2019-03-05T04:32:04.717Z,4.50
2019-03-05T04:34:33.554Z,4.60
2019-03-05T04:37:02.403Z,4.60
2019-03-05T04:39:31.244Z,4.50
2019-03-05T04:42:00.080Z,4.50
2019-03-05T04:44:34.104Z,4.40
2019-03-05T04:47:02.996Z,4.50
2019-03-05T04:50:03.300Z,4.50
2019-03-05T04:52:34.820Z,4.60
2019-03-05T04:55:03.878Z,4.70
2019-03-05T04:57:32.797Z,4.80
2019-03-05T05:00:01.703Z,4.90
2019-03-05T05:02:30.521Z,5.00
2019-03-05T05:04:59.448Z,5.00
2019-03-05T05:07:28.369Z,5.00
2019-03-05T05:09:57.226Z,5.00
2019-03-05T05:12:26.076Z,5.10
2019-03-05T05:14:54.964Z,5.10
2019-03-05T05:17:23.800Z,5.10
2019-03-05T05:19:52.724Z,5.10
2019-03-05T05:22:21.563Z,5.00
2019-03-05T05:24:50.396Z,4.90
2019-03-05T05:27:19.279Z,4.80
2019-03-05T05:29:48.077Z,4.70
2019-03-05T05:32:16.908Z,4.70
2019-03-05T05:34:45.751Z,4.70
2019-03-05T05:37:14.668Z,4.70
2019-03-05T05:40:19.883Z,4.60
2019-03-05T05:42:48.721Z,4.50
2019-03-05T05:45:19.292Z,4.50
2019-03-05T05:47:48.361Z,4.50
2019-03-05T05:50:17.452Z,4.40
2019-03-05T05:52:46.300Z,4.30
2019-03-05T05:55:15.230Z,4.30
2019-03-05T05:57:44.060Z,4.30
2019-03-05T06:00:14.791Z,4.30
2019-03-05T06:02:43.793Z,4.40
2019-03-05T06:05:12.764Z,4.40
2019-03-05T06:07:41.745Z,4.50
2019-03-05T06:10:10.872Z,4.60
2019-03-05T06:12:39.900Z,4.60
2019-03-05T06:15:09.673Z,4.60
2019-03-05T06:17:38.666Z,4.60
2019-03-05T06:20:09.399Z,4.50
2019-03-05T06:22:38.311Z,4.60
2019-03-05T06:25:07.360Z,4.50
2019-03-05T06:27:36.333Z,5.00
2019-03-05T06:30:06.201Z,4.50
2019-03-05T06:32:35.051Z,4.60
2019-03-05T06:35:04.496Z,4.70
2019-03-05T06:37:33.474Z,4.70
2019-03-05T06:40:02.338Z,4.70
2019-03-05T06:42:31.258Z,4.70
2019-03-05T06:45:00.173Z,4.70
2019-03-05T06:47:29.032Z,4.70
2019-03-05T06:49:57.872Z,4.80
2019-03-05T06:52:26.717Z,4.70
2019-03-05T06:54:55.648Z,4.70
2019-03-05T06:57:24.573Z,4.70
2019-03-05T06:59:53.485Z,4.70
2019-03-05T07:02:22.437Z,4.80
2019-03-05T07:04:57.237Z,4.80
2019-03-05T07:07:28.641Z,4.80
2019-03-05T07:10:02.423Z,4.80
2019-03-05T07:12:51.473Z,4.90
2019-03-05T07:16:16.596Z,4.90
2019-03-05T07:18:55.538Z,4.90
2019-03-05T07:21:50.233Z,5.20
2019-03-05T07:24:42.125Z,5.40
2019-03-05T07:27:11.661Z,5.50
2019-03-05T07:29:41.445Z,5.70
2019-03-05T07:32:10.460Z,5.70
2019-03-05T07:34:41.792Z,5.80
2019-03-05T07:37:12.164Z,5.80
2019-03-05T07:39:41.040Z,6.00
2019-03-05T07:42:09.952Z,6.10
2019-03-05T07:44:38.861Z,6.10
2019-03-05T07:47:07.789Z,6.10
2019-03-05T07:49:43.899Z,6.20
2019-03-05T07:52:07.304Z,6.20
2019-03-05T07:54:36.237Z,6.30
2019-03-05T07:57:05.288Z,6.40
2019-03-05T07:59:34.112Z,6.40
2019-03-05T08:02:03.036Z,6.50
2019-03-05T08:04:31.854Z,6.50
2019-03-05T08:07:00.755Z,6.60
2019-03-05T08:09:37.273Z,6.70
2019-03-05T08:12:47.633Z,6.80
2019-03-05T08:15:32.590Z,6.80
2019-03-05T08:18:01.781Z,6.90
2019-03-05T08:20:30.776Z,7.10
2019-03-05T08:22:59.706Z,7.30
2019-03-05T08:25:28.533Z,7.50
2019-03-05T08:27:57.428Z,7.60
2019-03-05T08:30:26.352Z,7.60
2019-03-05T08:32:55.335Z,7.40
2019-03-05T08:35:24.271Z,7.30
2019-03-05T08:37:53.221Z,7.20
2019-03-05T08:40:22.294Z,7.30
2019-03-05T08:42:51.285Z,7.20
2019-03-05T08:45:28.797Z,7.30
2019-03-05T08:47:52.193Z,7.30
2019-03-05T08:50:22.108Z,7.20
2019-03-05T08:52:51.143Z,7.30
2019-03-05T08:55:20.109Z,7.40
2019-03-05T08:57:48.957Z,7.40
2019-03-05T09:00:18.422Z,7.40
2019-03-05T09:02:48.871Z,7.50
2019-03-05T09:05:19.242Z,7.60
2019-03-05T09:07:49.271Z,7.60
2019-03-05T09:10:19.713Z,7.70
2019-03-05T09:12:48.728Z,7.90
2019-03-05T09:15:18.003Z,8.10
2019-03-05T09:17:47.088Z,8.20
2019-03-05T09:20:16.643Z,8.30
2019-03-05T09:22:45.632Z,8.30
2019-03-05T09:25:15.433Z,8.30
2019-03-05T09:27:44.438Z,8.30
2019-03-05T09:30:16.526Z,8.20
2019-03-05T09:32:45.532Z,8.10
2019-03-05T09:35:14.923Z,8.10
2019-03-05T09:37:43.943Z,8.00
2019-03-05T09:40:15.795Z,7.90
2019-03-05T09:42:44.771Z,7.90
2019-03-05T09:45:15.404Z,7.90
2019-03-05T09:47:44.297Z,8.00
2019-03-05T09:50:18.758Z,8.10
2019-03-05T09:52:54.767Z,8.30
2019-03-05T09:55:20.276Z,8.50
2019-03-05T09:58:11.920Z,8.50
2019-03-05T10:00:44.043Z,8.40
2019-03-05T10:03:13.068Z,8.30
2019-03-05T10:05:47.378Z,8.20
2019-03-05T10:08:17.720Z,8.30
2019-03-05T10:11:17.362Z,8.60
2019-03-05T10:13:50.252Z,8.80
2019-03-05T10:16:36.702Z,8.80
2019-03-05T10:19:14.716Z,9.10
2019-03-05T10:21:46.528Z,9.20
2019-03-05T10:24:29.996Z,9.10
2019-03-05T10:27:28.566Z,8.80
2019-03-05T10:30:10.126Z,8.70
2019-03-05T10:35:53.364Z,8.50
2019-03-05T10:38:23.806Z,8.70
2019-03-05T10:40:54.275Z,8.70
2019-03-05T10:43:48.030Z,8.80
2019-03-05T10:46:40.145Z,8.80
2019-03-05T10:49:13.489Z,8.80
2019-03-05T10:52:29.428Z,9.00
2019-03-05T10:56:03.351Z,9.20
2019-03-05T10:58:45.442Z,9.20
2019-03-05T11:01:17.289Z,9.10
2019-03-05T11:04:02.004Z,9.00
2019-03-05T11:06:31.754Z,9.10
2019-03-05T11:09:02.719Z,9.20
2019-03-05T11:11:33.849Z,9.20
2019-03-05T11:14:02.893Z,9.10
2019-03-05T11:16:34.376Z,9.00
2019-03-05T11:19:04.600Z,9.00
2019-03-05T11:21:35.539Z,9.10
2019-03-05T11:24:08.133Z,9.20
2019-03-05T11:26:38.937Z,9.20
2019-03-05T11:29:12.389Z,9.20
2019-03-05T11:31:56.128Z,9.10
2019-03-05T11:34:27.749Z,9.10
2019-03-05T11:37:03.197Z,9.10
2019-03-05T11:39:38.889Z,9.20
2019-03-05T11:42:14.133Z,9.30
2019-03-05T11:45:06.916Z,9.50
2019-03-05T11:47:28.165Z,9.80
2019-03-05T11:50:37.960Z,10.20
2019-03-05T11:53:09.484Z,10.40
2019-03-05T11:55:41.725Z,10.40
2019-03-05T11:58:13.526Z,10.30
2019-03-05T12:08:44.181Z,9.90
2019-03-05T12:27:10.639Z,10.10
2019-03-05T12:30:33.546Z,10.30
2019-03-05T12:45:16.137Z,10.90
2019-03-05T12:47:57.598Z,10.80
2019-03-05T12:50:33.246Z,10.60
2019-03-05T12:53:03.624Z,10.60
2019-03-05T12:58:27.644Z,10.70
2019-03-05T13:01:10.283Z,10.70
2019-03-05T13:03:55.957Z,10.80
2019-03-05T13:06:58.976Z,11.00
2019-03-05T13:09:34.467Z,11.10
2019-03-05T13:12:06.113Z,11.20
2019-03-05T13:14:38.234Z,11.10
2019-03-05T13:17:18.165Z,11.10
2019-03-05T13:19:54.145Z,11.00
2019-03-05T13:22:34.307Z,11.00
2019-03-05T13:25:13.542Z,10.70
2019-03-05T13:27:47.150Z,10.40
2019-03-05T13:30:27.633Z,10.30
2019-03-05T13:33:07.363Z,10.30
2019-03-05T13:35:37.988Z,10.50
2019-03-05T13:38:09.704Z,10.60
2019-03-05T13:41:43.040Z,10.70
2019-03-05T13:44:44.551Z,10.60
2019-03-05T13:47:17.926Z,10.80
2019-03-05T13:49:59.829Z,11.00
2019-03-05T13:53:22.611Z,11.20
2019-03-05T13:56:12.986Z,11.40
2019-03-05T13:59:31.631Z,11.50
2019-03-05T14:02:03.126Z,11.50
2019-03-05T14:04:40.496Z,11.40
2019-03-05T14:07:50.165Z,11.40
2019-03-05T14:10:40.234Z,11.30
2019-03-05T14:13:09.311Z,11.10
2019-03-05T14:15:41.709Z,11.00
2019-03-05T14:18:10.796Z,10.70
2019-03-05T14:20:42.270Z,10.70
2019-03-05T14:23:17.308Z,10.70
2019-03-05T14:25:46.290Z,10.70
2019-03-05T14:28:19.575Z,10.70
2019-03-05T14:30:50.615Z,10.60
2019-03-05T14:33:21.425Z,10.50
2019-03-05T14:35:50.549Z,10.40
2019-03-05T14:38:20.211Z,10.40
2019-03-05T14:40:51.530Z,10.40
2019-03-05T14:43:21.517Z,10.20
2019-03-05T14:45:53.157Z,10.10
2019-03-05T14:48:24.201Z,10.10
2019-03-05T14:50:57.433Z,10.00
2019-03-05T14:53:26.504Z,9.90
2019-03-05T14:56:14.833Z,9.90
2019-03-05T14:59:11.848Z,9.90
2019-03-05T15:01:43.390Z,10.00
2019-03-05T15:04:13.019Z,10.10
2019-03-05T15:06:42.901Z,10.20
2019-03-05T15:09:13.110Z,10.30
2019-03-05T15:11:44.105Z,10.30
2019-03-05T15:14:13.161Z,10.30
2019-03-05T15:16:42.199Z,10.30
2019-03-05T15:19:20.944Z,10.30
2019-03-05T15:21:42.937Z,10.40
2019-03-05T15:24:22.791Z,10.50
2019-03-05T15:26:57.072Z,10.40
2019-03-05T15:29:26.107Z,10.30
2019-03-05T15:31:55.442Z,10.30
2019-03-05T15:34:26.053Z,10.20
2019-03-05T15:37:37.487Z,10.10
2019-03-05T15:40:11.314Z,10.00
2019-03-05T15:43:04.372Z,9.90
2019-03-05T15:45:33.360Z,9.70
2019-03-05T15:51:17.195Z,9.40
2019-03-05T15:56:16.387Z,9.20
2019-03-05T15:58:45.250Z,9.10
2019-03-05T16:01:22.032Z,9.10
2019-03-05T16:03:46.231Z,9.00
2019-03-05T16:06:15.218Z,8.80
2019-03-05T16:08:44.137Z,8.70
2019-03-05T16:11:13.085Z,8.60
2019-03-05T16:13:41.937Z,8.50
2019-03-05T16:16:11.693Z,8.50
2019-03-05T16:18:40.653Z,8.40
2019-03-05T16:21:09.592Z,8.40
2019-03-05T16:23:38.773Z,8.40
2019-03-05T16:26:07.896Z,8.30
2019-03-05T16:28:39.204Z,8.40
2019-03-05T16:31:26.129Z,8.30
2019-03-05T16:34:01.998Z,8.20
2019-03-05T16:36:52.787Z,8.20
2019-03-05T16:39:50.188Z,8.10
2019-03-05T16:42:32.254Z,8.00
2019-03-05T16:45:06.882Z,7.80
2019-03-05T16:47:46.656Z,7.70
2019-03-05T16:50:26.270Z,7.60
2019-03-05T16:53:06.755Z,7.50
2019-03-05T16:56:10.128Z,7.40
2019-03-05T16:58:50.824Z,7.30
2019-03-05T17:01:41.717Z,7.30
2019-03-05T17:04:26.696Z,7.20
2019-03-05T17:07:14.942Z,7.10
2019-03-05T17:10:11.756Z,7.00
2019-03-05T17:12:40.734Z,7.00
2019-03-05T17:15:10.024Z,6.90
2019-03-05T17:17:38.940Z,6.80
2019-03-05T17:20:09.272Z,6.80
2019-03-05T17:22:38.249Z,6.80
2019-03-05T17:25:09.512Z,6.80
2019-03-05T17:27:38.605Z,6.80
2019-03-05T17:30:13.214Z,6.70
2019-03-05T17:32:42.140Z,6.70
2019-03-05T17:35:11.140Z,6.60
2019-03-05T17:37:40.137Z,6.60
2019-03-05T17:40:10.541Z,6.60
2019-03-05T17:42:39.540Z,6.60
2019-03-05T17:45:12.216Z,6.60
2019-03-05T17:47:41.217Z,6.50
2019-03-05T17:50:11.217Z,6.60
2019-03-05T17:52:40.219Z,6.60
2019-03-05T17:55:11.271Z,6.60
2019-03-05T17:57:40.121Z,6.60
2019-03-05T18:00:10.985Z,6.50
2019-03-05T18:02:39.884Z,6.50
2019-03-05T18:05:08.931Z,6.50
2019-03-05T18:07:37.857Z,6.50
2019-03-05T18:10:07.662Z,6.50
2019-03-05T18:12:36.933Z,6.50
2019-03-05T18:15:06.989Z,6.50
2019-03-05T18:17:36.020Z,6.50
2019-03-05T18:20:07.145Z,6.50
2019-03-05T18:22:36.016Z,6.50
2019-03-05T18:25:06.881Z,6.50
2019-03-05T18:27:35.736Z,6.50
2019-03-05T18:30:07.513Z,6.30
2019-03-05T18:32:37.133Z,6.20
2019-03-05T18:35:06.360Z,6.10
2019-03-05T18:37:35.278Z,6.00
2019-03-05T18:40:04.537Z,5.90
2019-03-05T18:42:38.374Z,5.90
2019-03-05T18:45:10.858Z,5.80
2019-03-05T18:47:40.409Z,5.70
2019-03-05T18:50:09.878Z,5.70
2019-03-05T18:52:38.858Z,5.60
2019-03-05T18:55:08.985Z,5.60
2019-03-05T18:57:37.858Z,5.50
2019-03-05T19:00:08.603Z,5.50
2019-03-05T19:02:37.684Z,5.50
2019-03-05T19:05:07.553Z,5.50
2019-03-05T19:07:38.748Z,5.50
2019-03-05T19:10:10.786Z,5.40
2019-03-05T19:12:39.718Z,5.40
2019-03-05T19:15:10.133Z,5.40
2019-03-05T19:17:39.148Z,5.40
2019-03-05T19:20:10.762Z,5.30
2019-03-05T19:22:39.696Z,5.30
2019-03-05T19:25:10.897Z,5.20
2019-03-05T19:27:39.842Z,5.20
2019-03-05T19:30:11.208Z,5.30
2019-03-05T19:32:40.526Z,5.30
2019-03-05T19:35:09.693Z,5.20
2019-03-05T19:37:39.825Z,5.20
2019-03-05T19:40:11.004Z,5.20
2019-03-05T19:42:39.973Z,5.10
2019-03-05T19:45:10.021Z,5.10
2019-03-05T19:47:38.958Z,5.10
2019-03-05T19:50:09.851Z,5.00
2019-03-05T19:52:38.718Z,5.00
2019-03-05T19:55:09.362Z,5.00
2019-03-05T19:57:38.316Z,5.00
2019-03-05T20:00:11.629Z,4.90
2019-03-05T20:02:41.425Z,4.90
2019-03-05T20:05:11.873Z,4.90
2019-03-05T20:07:40.978Z,4.90
2019-03-05T20:10:12.021Z,4.90
2019-03-05T20:12:43.668Z,4.80
2019-03-05T20:15:18.529Z,4.70
2019-03-05T20:17:48.189Z,4.70
2019-03-05T20:20:17.537Z,4.70
2019-03-05T20:22:46.553Z,4.70
2019-03-05T20:25:17.371Z,4.70
2019-03-05T20:27:46.418Z,4.70
2019-03-05T20:30:17.777Z,4.60
2019-03-05T20:32:47.065Z,4.60
2019-03-05T20:35:17.409Z,4.60
2019-03-05T20:37:46.708Z,4.60
2019-03-05T20:40:41.785Z,4.70
2019-03-05T20:43:10.898Z,4.70
2019-03-05T20:45:41.121Z,4.70
2019-03-05T20:48:11.646Z,4.70
2019-03-05T20:50:49.576Z,4.70
2019-03-05T20:53:18.614Z,4.80
2019-03-05T20:55:49.584Z,4.80
2019-03-05T20:58:18.562Z,4.90
2019-03-05T21:00:47.874Z,4.80
2019-03-05T21:03:16.839Z,4.90
2019-03-05T21:05:45.977Z,4.90
2019-03-05T21:08:15.014Z,5.00
2019-03-05T21:10:44.108Z,4.90
2019-03-05T21:13:13.144Z,4.90
2019-03-05T21:15:42.092Z,4.90
2019-03-05T21:18:11.041Z,4.90
2019-03-05T21:20:39.957Z,4.90
2019-03-05T21:23:08.952Z,4.90
2019-03-05T21:25:38.004Z,4.90
2019-03-05T21:28:06.923Z,5.00
2019-03-05T21:30:36.096Z,5.00
2019-03-05T21:33:05.108Z,4.90
2019-03-05T21:35:33.940Z,4.90
2019-03-05T21:38:02.944Z,4.80
2019-03-05T21:40:31.804Z,4.80
2019-03-05T21:43:00.811Z,4.70
2019-03-05T21:45:34.737Z,4.70
2019-03-05T21:48:04.318Z,4.70
2019-03-05T21:50:33.253Z,4.60
2019-03-05T21:53:02.262Z,4.60
2019-03-05T21:55:31.193Z,4.50
2019-03-05T21:58:00.116Z,4.50
2019-03-05T22:00:29.986Z,4.50
2019-03-05T22:02:59.520Z,4.60
2019-03-05T22:05:28.620Z,4.60
2019-03-05T22:07:57.616Z,4.60
2019-03-05T22:10:26.601Z,4.70
2019-03-05T22:12:55.589Z,4.60
2019-03-05T22:15:24.636Z,4.60
2019-03-05T22:17:53.716Z,4.60
2019-03-05T22:20:23.101Z,4.60
2019-03-05T22:22:52.101Z,4.60
2019-03-05T22:25:21.096Z,4.60
2019-03-05T22:27:50.273Z,4.70
2019-03-05T22:30:21.528Z,4.70
2019-03-05T22:32:50.534Z,4.70
2019-03-05T22:35:19.705Z,4.70
2019-03-05T22:37:48.637Z,4.70
2019-03-05T22:40:17.757Z,4.70
2019-03-05T22:42:46.684Z,4.80
2019-03-05T22:45:17.750Z,4.80
2019-03-05T22:47:47.005Z,4.80
2019-03-05T22:50:16.232Z,4.80
2019-03-05T22:52:45.157Z,4.70
2019-03-05T22:55:14.418Z,4.80
2019-03-05T22:57:43.441Z,4.80
2019-03-05T23:00:55.421Z,4.80
2019-03-05T23:03:24.783Z,4.90
2019-03-05T23:05:54.053Z,5.00
2019-03-05T23:08:23.089Z,4.90
2019-03-05T23:10:52.304Z,4.90
2019-03-05T23:13:21.501Z,5.00
2019-03-05T23:15:50.839Z,4.90
2019-03-05T23:18:20.463Z,4.90
2019-03-05T23:20:49.396Z,4.80
2019-03-05T23:23:19.132Z,4.80
2019-03-05T23:25:48.171Z,4.70
2019-03-05T23:28:17.111Z,4.60
2019-03-05T23:30:46.098Z,4.40
2019-03-05T23:33:15.143Z,4.30
2019-03-05T23:35:44.097Z,4.30
2019-03-05T23:38:13.093Z,4.30
2019-03-05T23:40:42.122Z,4.30
2019-03-05T23:43:11.170Z,4.20
2019-03-05T23:45:40.181Z,4.20
2019-03-05T23:48:09.105Z,4.20
2019-03-05T23:50:38.020Z,4.20
2019-03-05T23:53:06.908Z,4.20
2019-03-05T23:55:36.093Z,4.00
2019-03-05T23:58:05.094Z,4.00
